createdAt,value
2023-03-01T00:01:42.247Z,100.00
2023-03-01T00:04:09.821Z,100.00
2023-03-01T00:06:37.518Z,100.00
2023-03-01T00:09:05.552Z,100.00
2023-03-01T00:11:34.317Z,100.00
2023-03-01T00:14:05.919Z,100.00
2023-03-01T00:16:37.065Z,100.00
2023-03-01T00:19:04.651Z,100.00
2023-03-01T00:21:31.943Z,100.00
2023-03-01T00:23:59.686Z,100.00
2023-03-01T00:26:27.560Z,100.00
2023-03-01T00:28:57.744Z,100.00
2023-03-01T00:31:28.572Z,100.00
2023-03-01T00:33:58.424Z,100.00
2023-03-01T00:36:29.829Z,100.00
2023-03-01T00:38:58.136Z,100.00
2023-03-01T00:41:27.849Z,100.00
2023-03-01T00:43:56.410Z,100.00
2023-03-01T00:46:27.030Z,100.00
2023-03-01T00:48:55.034Z,100.00
2023-03-01T00:51:28.414Z,100.00
2023-03-01T00:54:03.478Z,100.00
2023-03-01T00:56:32.125Z,100.00
2023-03-01T00:59:00.145Z,100.00
2023-03-01T01:01:33.521Z,100.00
2023-03-01T01:04:07.562Z,100.00
2023-03-01T01:06:45.896Z,100.00
2023-03-01T01:09:18.541Z,100.00
2023-03-01T01:11:48.741Z,100.00
2023-03-01T01:14:17.822Z,100.00
2023-03-01T01:16:45.124Z,100.00
2023-03-01T01:19:13.081Z,100.00
2023-03-01T01:21:41.097Z,100.00
2023-03-01T01:24:08.866Z,100.00
2023-03-01T01:26:36.182Z,100.00
2023-03-01T01:29:05.829Z,100.00
2023-03-01T01:31:35.336Z,100.00
2023-03-01T01:34:05.483Z,100.00
2023-03-01T01:36:35.594Z,100.00
2023-03-01T01:39:03.537Z,100.00
2023-03-01T01:41:30.829Z,100.00
2023-03-01T01:44:24.720Z,100.00
2023-03-01T01:46:57.888Z,100.00
2023-03-01T01:49:28.236Z,100.00
2023-03-01T01:52:03.247Z,100.00
2023-03-01T01:54:43.411Z,100.00
2023-03-01T01:57:17.218Z,100.00
2023-03-01T01:59:50.238Z,100.00
2023-03-01T02:02:17.904Z,100.00
2023-03-01T02:04:45.723Z,100.00
2023-03-01T02:07:19.170Z,100.00
2023-03-01T02:09:49.199Z,100.00
2023-03-01T02:12:20.483Z,100.00
2023-03-01T02:14:48.215Z,100.00
2023-03-01T02:17:18.114Z,100.00
2023-03-01T02:20:16.673Z,100.00
2023-03-01T02:22:46.223Z,100.00
2023-03-01T02:25:47.970Z,100.00
2023-03-01T02:28:16.479Z,100.00
2023-03-01T02:31:06.626Z,100.00
2023-03-01T02:33:37.212Z,100.00
2023-03-01T02:36:09.269Z,100.00
2023-03-01T02:38:36.730Z,100.00
2023-03-01T02:41:07.602Z,100.00
2023-03-01T02:43:35.921Z,100.00
2023-03-01T02:46:26.136Z,100.00
2023-03-01T02:48:56.475Z,100.00
2023-03-01T02:51:27.813Z,100.00
2023-03-01T02:54:00.862Z,100.00
2023-03-01T02:56:30.363Z,100.00
2023-03-01T02:59:01.655Z,100.00
2023-03-01T03:01:39.457Z,100.00
2023-03-01T03:04:12.517Z,100.00
2023-03-01T03:06:40.858Z,100.00
2023-03-01T03:09:09.091Z,100.00
2023-03-01T03:11:37.944Z,100.00
2023-03-01T03:14:05.234Z,100.00
2023-03-01T03:16:33.263Z,100.00
2023-03-01T03:19:06.144Z,100.00
2023-03-01T03:21:35.602Z,100.00
2023-03-01T03:24:03.498Z,100.00
2023-03-01T03:26:31.566Z,100.00
2023-03-01T03:28:59.343Z,100.00
2023-03-01T03:31:27.222Z,100.00
2023-03-01T03:33:55.374Z,100.00
2023-03-01T03:36:25.251Z,100.00
2023-03-01T03:38:52.683Z,100.00
2023-03-01T03:41:20.217Z,100.00
2023-03-01T03:43:47.667Z,100.00
2023-03-01T03:46:15.542Z,100.00
2023-03-01T03:48:45.567Z,100.00
2023-03-01T03:51:18.055Z,100.00
2023-03-01T03:53:46.303Z,100.00
2023-03-01T03:56:14.088Z,100.00
2023-03-01T03:58:41.649Z,100.00
2023-03-01T04:01:09.282Z,100.00
2023-03-01T04:03:36.551Z,100.00
2023-03-01T04:06:05.284Z,100.00
2023-03-01T04:08:33.046Z,100.00
2023-03-01T04:11:25.727Z,100.00
2023-03-01T04:13:55.132Z,100.00
2023-03-01T04:16:22.898Z,100.00
2023-03-01T04:18:50.564Z,100.00
2023-03-01T04:21:18.227Z,100.00
2023-03-01T04:23:45.487Z,100.00
2023-03-01T04:26:13.329Z,100.00
2023-03-01T04:28:46.211Z,100.00
2023-03-01T04:31:18.487Z,100.00
2023-03-01T04:34:03.886Z,100.00
2023-03-01T04:36:32.084Z,100.00
2023-03-01T04:38:59.749Z,100.00
2023-03-01T04:41:27.430Z,100.00
2023-03-01T04:43:54.816Z,100.00
2023-03-01T04:46:23.263Z,100.00
2023-03-01T04:48:50.699Z,100.00
2023-03-01T04:51:19.449Z,100.00
2023-03-01T04:53:47.042Z,100.00
2023-03-01T04:56:15.661Z,100.00
2023-03-01T04:58:43.427Z,100.00
2023-03-01T05:01:16.512Z,100.00
2023-03-01T05:03:52.306Z,100.00
2023-03-01T05:06:21.640Z,100.00
2023-03-01T05:08:49.244Z,100.00
2023-03-01T05:11:16.841Z,100.00
2023-03-01T05:13:44.392Z,100.00
2023-03-01T05:16:12.845Z,100.00
2023-03-01T05:18:41.713Z,100.00
2023-03-01T05:21:13.050Z,100.00
2023-03-01T05:23:40.700Z,100.00
2023-03-01T05:26:16.264Z,100.00
2023-03-01T05:28:53.354Z,100.00
2023-03-01T05:31:21.002Z,100.00
2023-03-01T05:33:48.500Z,100.00
2023-03-01T05:36:16.072Z,100.00
2023-03-01T05:38:43.384Z,100.00
2023-03-01T05:41:16.342Z,100.00
2023-03-01T05:43:46.025Z,100.00
2023-03-01T05:46:16.357Z,100.00
2023-03-01T05:48:44.746Z,100.00
2023-03-01T05:51:13.187Z,100.00
2023-03-01T05:53:40.497Z,100.00
2023-03-01T05:56:08.297Z,100.00
2023-03-01T05:58:35.543Z,100.00
2023-03-01T06:01:03.229Z,100.00
2023-03-01T06:03:30.535Z,100.00
2023-03-01T06:05:59.232Z,100.00
2023-03-01T06:08:28.355Z,100.00
2023-03-01T06:10:56.092Z,100.00
2023-03-01T06:13:24.592Z,100.00
2023-03-01T06:15:53.050Z,100.00
2023-03-01T06:18:20.578Z,100.00
2023-03-01T06:20:54.874Z,100.00
2023-03-01T06:23:23.023Z,100.00
2023-03-01T06:25:50.942Z,100.00
2023-03-01T06:28:18.418Z,100.00
2023-03-01T06:30:46.106Z,100.00
2023-03-01T06:33:13.358Z,100.00
2023-03-01T06:35:40.923Z,100.00
2023-03-01T06:38:08.519Z,100.00
2023-03-01T06:40:36.438Z,99.29
2023-03-01T06:43:03.918Z,96.27
2023-03-01T06:45:31.498Z,93.01
2023-03-01T06:48:08.648Z,94.67
2023-03-01T06:50:37.087Z,91.44
2023-03-01T06:53:04.684Z,95.37
2023-03-01T06:55:33.250Z,93.52
2023-03-01T06:58:02.446Z,87.33
2023-03-01T07:00:30.491Z,85.22
2023-03-01T07:03:00.807Z,79.65
2023-03-01T07:05:29.432Z,74.01
2023-03-01T07:07:57.412Z,70.80
2023-03-01T07:10:25.240Z,60.46
2023-03-01T07:12:56.232Z,54.44
2023-03-01T07:15:23.945Z,48.64
2023-03-01T07:17:51.868Z,47.70
2023-03-01T07:20:23.625Z,47.22
2023-03-01T07:22:51.222Z,47.71
2023-03-01T07:25:18.911Z,44.46
2023-03-01T07:27:50.726Z,43.33
2023-03-01T07:30:18.535Z,42.36
2023-03-01T07:32:46.674Z,42.82
2023-03-01T07:35:15.923Z,44.28
2023-03-01T07:37:43.426Z,40.78
2023-03-01T07:40:12.009Z,41.44
2023-03-01T07:42:39.371Z,38.99
2023-03-01T07:45:08.025Z,39.13
2023-03-01T07:47:35.333Z,37.53
2023-03-01T07:50:03.934Z,35.25
2023-03-01T07:52:31.880Z,35.81
2023-03-01T07:54:59.438Z,35.65
2023-03-01T07:57:26.786Z,35.85
2023-03-01T07:59:54.377Z,36.60
2023-03-01T08:02:21.666Z,36.53
2023-03-01T08:04:49.259Z,35.59
2023-03-01T08:07:16.498Z,37.32
2023-03-01T08:09:44.142Z,36.69
2023-03-01T08:12:11.927Z,38.28
2023-03-01T08:14:39.528Z,37.83
2023-03-01T08:17:06.742Z,37.79
2023-03-01T08:19:35.782Z,34.97
2023-03-01T08:22:03.596Z,36.47
2023-03-01T08:24:31.175Z,34.85
2023-03-01T08:26:58.564Z,35.57
2023-03-01T08:29:26.156Z,37.09
2023-03-01T08:31:53.573Z,34.94
2023-03-01T08:34:21.131Z,33.68
2023-03-01T08:36:48.412Z,34.33
2023-03-01T08:39:17.846Z,34.87
2023-03-01T08:41:47.080Z,34.12
2023-03-01T08:44:20.603Z,33.01
2023-03-01T08:46:50.979Z,34.08
2023-03-01T08:49:20.056Z,31.85
2023-03-01T08:51:48.505Z,31.24
2023-03-01T08:54:19.803Z,31.10
2023-03-01T08:56:47.600Z,30.77
2023-03-01T08:59:16.871Z,31.50
2023-03-01T09:01:44.626Z,31.28
2023-03-01T09:04:12.986Z,33.85
2023-03-01T09:06:40.305Z,31.42
2023-03-01T09:09:13.489Z,29.65
2023-03-01T09:11:40.806Z,30.17
2023-03-01T09:14:08.425Z,29.38
2023-03-01T09:16:37.230Z,29.65
2023-03-01T09:19:05.293Z,31.22
2023-03-01T09:21:40.187Z,31.11
2023-03-01T09:24:15.245Z,33.86
2023-03-01T09:26:43.157Z,34.36
2023-03-01T09:29:11.049Z,33.66
2023-03-01T09:31:38.565Z,31.69
2023-03-01T09:34:06.273Z,31.12
2023-03-01T09:36:34.512Z,30.38
2023-03-01T09:39:03.190Z,30.47
2023-03-01T09:41:43.690Z,32.10
2023-03-01T09:44:52.351Z,34.97
2023-03-01T09:47:30.317Z,34.23
2023-03-01T09:50:20.013Z,32.78
2023-03-01T09:53:11.881Z,31.62
2023-03-01T09:55:42.515Z,32.05
2023-03-01T09:58:47.418Z,31.83
2023-03-01T10:01:33.894Z,31.37
2023-03-01T10:04:07.528Z,32.01
2023-03-01T10:06:35.747Z,32.54
2023-03-01T10:09:14.935Z,35.13
2023-03-01T10:11:53.779Z,32.34
2023-03-01T10:14:38.952Z,31.60
2023-03-01T10:17:43.661Z,31.25
2023-03-01T10:20:25.986Z,31.67
2023-03-01T10:22:56.194Z,32.89
2023-03-01T10:25:41.853Z,34.73
2023-03-01T10:28:39.049Z,32.75
2023-03-01T10:31:12.431Z,32.94
2023-03-01T10:33:43.598Z,32.64
2023-03-01T10:36:11.185Z,33.98
2023-03-01T10:38:53.448Z,34.12
2023-03-01T10:41:24.955Z,35.03
2023-03-01T10:43:55.073Z,34.12
2023-03-01T10:46:27.646Z,33.96
2023-03-01T10:49:19.396Z,33.10
2023-03-01T10:51:52.770Z,33.26
2023-03-01T10:54:29.016Z,33.33
2023-03-01T10:56:58.523Z,36.25
2023-03-01T10:59:31.234Z,36.95
2023-03-01T11:02:24.559Z,35.60
2023-03-01T11:05:25.033Z,34.09
2023-03-01T11:08:00.462Z,35.33
2023-03-01T11:10:30.845Z,35.28
2023-03-01T11:13:19.955Z,34.74
2023-03-01T11:16:11.156Z,35.75
2023-03-01T11:18:47.533Z,37.81
2023-03-01T11:21:17.651Z,40.86
2023-03-01T11:23:47.979Z,44.68
2023-03-01T11:26:18.517Z,47.09
2023-03-01T11:28:52.947Z,47.58
2023-03-01T11:31:21.007Z,48.78
2023-03-01T11:34:25.074Z,53.71
2023-03-01T11:36:57.790Z,55.85
2023-03-01T11:39:42.681Z,56.35
2023-03-01T11:42:20.160Z,60.99
2023-03-01T11:44:51.615Z,61.85
2023-03-01T11:47:53.072Z,67.63
2023-03-01T11:50:25.956Z,69.39
2023-03-01T11:53:24.434Z,71.44
2023-03-01T11:56:00.836Z,75.06
2023-03-01T11:58:37.375Z,74.12
2023-03-01T12:01:29.787Z,75.84
2023-03-01T12:04:24.963Z,73.63
2023-03-01T12:07:02.422Z,73.90
2023-03-01T12:09:39.523Z,76.87
2023-03-01T12:12:11.221Z,76.52
2023-03-01T12:14:50.895Z,77.07
2023-03-01T12:18:00.711Z,75.29
2023-03-01T12:20:47.117Z,73.30
2023-03-01T12:23:20.363Z,74.35
2023-03-01T12:26:00.523Z,72.91
2023-03-01T12:28:54.026Z,76.44
2023-03-01T12:31:55.545Z,79.46
2023-03-01T12:34:32.305Z,77.61
2023-03-01T12:37:18.646Z,75.29
2023-03-01T12:40:22.177Z,74.79
2023-03-01T12:43:18.435Z,74.39
2023-03-01T12:46:08.308Z,77.79
2023-03-01T12:48:55.038Z,78.14
2023-03-01T12:51:27.451Z,78.80
2023-03-01T12:53:58.432Z,78.81
2023-03-01T12:56:29.941Z,78.30
2023-03-01T12:59:06.815Z,79.30
2023-03-01T13:01:42.009Z,80.14
2023-03-01T13:04:35.285Z,77.63
2023-03-01T13:07:18.039Z,77.07
2023-03-01T13:10:07.345Z,78.16
2023-03-01T13:12:52.559Z,77.30
2023-03-01T13:15:23.323Z,77.60
2023-03-01T13:17:55.281Z,78.90
2023-03-01T13:20:33.752Z,82.64
2023-03-01T13:23:11.989Z,80.42
2023-03-01T13:26:01.154Z,80.75
2023-03-01T13:28:42.975Z,79.31
2023-03-01T13:31:32.238Z,77.56
2023-03-01T13:34:00.764Z,76.26
2023-03-01T13:36:28.404Z,79.51
2023-03-01T13:38:58.553Z,82.07
2023-03-01T13:41:44.552Z,82.49
2023-03-01T13:44:30.060Z,80.79
2023-03-01T13:47:14.981Z,80.37
2023-03-01T13:49:51.771Z,81.53
2023-03-01T13:52:37.583Z,81.31
2023-03-01T13:55:15.215Z,80.28
2023-03-01T13:57:46.981Z,79.93
2023-03-01T14:00:56.768Z,80.18
2023-03-01T14:03:25.170Z,78.11
2023-03-01T14:06:15.221Z,79.80
2023-03-01T14:08:45.258Z,83.66
2023-03-01T14:11:32.116Z,80.66
2023-03-01T14:14:17.675Z,80.39
2023-03-01T14:17:09.754Z,85.78
2023-03-01T14:19:37.677Z,83.47
2023-03-01T14:22:23.243Z,84.02
2023-03-01T14:24:56.088Z,84.82
2023-03-01T14:27:27.295Z,82.65
2023-03-01T14:30:04.589Z,86.95
2023-03-01T14:32:33.620Z,85.91
2023-03-01T14:35:02.025Z,85.93
2023-03-01T14:37:34.643Z,86.07
2023-03-01T14:40:05.136Z,83.12
2023-03-01T14:42:36.900Z,81.43
2023-03-01T14:45:07.529Z,84.40
2023-03-01T14:47:39.356Z,83.37
2023-03-01T14:50:11.755Z,84.40
2023-03-01T14:52:40.384Z,86.20
2023-03-01T14:55:19.967Z,85.11
2023-03-01T14:57:51.820Z,86.58
2023-03-01T15:00:19.454Z,86.50
2023-03-01T15:02:50.064Z,87.33
2023-03-01T15:05:30.206Z,86.99
2023-03-01T15:08:02.776Z,84.91
2023-03-01T15:10:36.900Z,86.69
2023-03-01T15:13:15.616Z,87.86
2023-03-01T15:15:48.570Z,87.87
2023-03-01T15:18:23.509Z,88.54
2023-03-01T15:20:52.054Z,90.87
2023-03-01T15:23:26.511Z,93.57
2023-03-01T15:25:58.303Z,92.43
2023-03-01T15:28:35.369Z,91.82
2023-03-01T15:31:20.826Z,91.08
2023-03-01T15:33:48.582Z,91.98
2023-03-01T15:36:35.286Z,91.21
2023-03-01T15:39:03.713Z,91.75
2023-03-01T15:41:32.779Z,91.83
2023-03-01T15:44:01.813Z,90.66
2023-03-01T15:46:38.650Z,91.21
2023-03-01T15:49:33.099Z,93.50
2023-03-01T15:52:00.656Z,93.89
2023-03-01T15:54:29.028Z,93.75
2023-03-01T15:56:56.972Z,92.25
2023-03-01T15:59:24.401Z,93.26
2023-03-01T16:01:52.020Z,94.81
2023-03-01T16:04:24.263Z,95.80
2023-03-01T16:06:56.868Z,94.88
2023-03-01T16:09:25.776Z,93.00
2023-03-01T16:11:54.690Z,94.34
2023-03-01T16:14:23.012Z,94.79
2023-03-01T16:16:50.578Z,95.63
2023-03-01T16:19:17.884Z,97.60
2023-03-01T16:21:47.813Z,99.37
2023-03-01T16:24:15.670Z,98.33
2023-03-01T16:26:43.333Z,99.40
2023-03-01T16:29:10.956Z,99.54
2023-03-01T16:31:38.470Z,99.71
2023-03-01T16:34:05.730Z,99.27
2023-03-01T16:36:33.498Z,98.95
2023-03-01T16:39:01.716Z,99.14
2023-03-01T16:41:29.542Z,99.21
2023-03-01T16:43:57.236Z,98.95
2023-03-01T16:46:29.359Z,99.08
2023-03-01T16:48:57.018Z,98.38
2023-03-01T16:51:25.380Z,98.11
2023-03-01T16:53:53.183Z,98.04
2023-03-01T16:56:20.810Z,97.91
2023-03-01T16:58:48.316Z,98.57
2023-03-01T17:01:18.489Z,98.21
2023-03-01T17:03:49.929Z,96.80
2023-03-01T17:06:21.448Z,94.59
2023-03-01T17:08:48.784Z,94.73
2023-03-01T17:11:19.711Z,98.11
2023-03-01T17:13:47.846Z,95.89
2023-03-01T17:16:18.129Z,96.13
2023-03-01T17:18:46.020Z,97.98
2023-03-01T17:21:14.457Z,100.00
2023-03-01T17:23:44.155Z,100.00
2023-03-01T17:26:11.820Z,100.00
2023-03-01T17:28:39.678Z,100.00
2023-03-01T17:31:08.198Z,100.00
2023-03-01T17:33:36.019Z,100.00
2023-03-01T17:36:04.079Z,99.99
2023-03-01T17:38:31.378Z,100.00
2023-03-01T17:41:01.067Z,100.00
2023-03-01T17:43:28.988Z,100.00
2023-03-01T17:45:58.006Z,100.00
2023-03-01T17:48:26.028Z,100.00
2023-03-01T17:50:53.742Z,100.00
2023-03-01T17:53:21.095Z,100.00
2023-03-01T17:55:54.278Z,100.00
2023-03-01T17:58:23.059Z,100.00
2023-03-01T18:00:50.995Z,100.00
2023-03-01T18:03:18.467Z,100.00
2023-03-01T18:05:45.997Z,99.05
2023-03-01T18:08:13.876Z,98.24
2023-03-01T18:10:41.512Z,99.02
2023-03-01T18:13:09.750Z,98.43
2023-03-01T18:15:37.386Z,98.26
2023-03-01T18:18:05.043Z,97.80
2023-03-01T18:20:34.398Z,96.86
2023-03-01T18:23:01.952Z,95.79
2023-03-01T18:25:29.284Z,96.05
2023-03-01T18:27:56.907Z,96.38
2023-03-01T18:30:24.202Z,97.63
2023-03-01T18:32:56.394Z,95.87
2023-03-01T18:35:24.185Z,95.28
2023-03-01T18:37:51.905Z,94.93
2023-03-01T18:40:19.288Z,97.03
2023-03-01T18:42:46.950Z,95.86
2023-03-01T18:45:17.114Z,96.57
2023-03-01T18:47:44.671Z,97.17
2023-03-01T18:50:12.082Z,97.45
2023-03-01T18:52:39.606Z,95.78
2023-03-01T18:55:06.978Z,94.95
2023-03-01T18:57:34.589Z,95.65
2023-03-01T19:00:02.349Z,97.22
2023-03-01T19:02:30.009Z,96.55
2023-03-01T19:04:57.265Z,95.50
2023-03-01T19:07:25.565Z,94.56
2023-03-01T19:09:52.895Z,94.98
2023-03-01T19:12:20.536Z,94.78
2023-03-01T19:14:47.899Z,96.60
2023-03-01T19:17:16.030Z,96.73
2023-03-01T19:19:43.261Z,95.78
2023-03-01T19:22:10.913Z,95.36
2023-03-01T19:24:38.176Z,96.20
2023-03-01T19:27:05.834Z,95.71
2023-03-01T19:29:33.098Z,94.75
2023-03-01T19:32:00.682Z,94.69
2023-03-01T19:34:27.993Z,94.67
2023-03-01T19:36:55.620Z,97.61
2023-03-01T19:39:22.831Z,96.97
2023-03-01T19:41:50.523Z,96.69
2023-03-01T19:44:17.923Z,95.58
2023-03-01T19:46:45.538Z,95.64
2023-03-01T19:49:12.953Z,96.00
2023-03-01T19:51:40.469Z,95.16
2023-03-01T19:54:09.872Z,96.61
2023-03-01T19:56:38.528Z,95.95
2023-03-01T19:59:06.953Z,95.20
2023-03-01T20:01:35.120Z,94.68
2023-03-01T20:04:03.618Z,95.67
2023-03-01T20:06:31.780Z,95.81
2023-03-01T20:09:02.301Z,95.63
2023-03-01T20:11:34.076Z,95.19
2023-03-01T20:14:02.335Z,94.84
2023-03-01T20:16:30.324Z,94.64
2023-03-01T20:19:00.846Z,95.10
2023-03-01T20:21:28.620Z,96.12
2023-03-01T20:23:55.972Z,96.39
2023-03-01T20:26:25.504Z,96.96
2023-03-01T20:28:55.030Z,97.03
2023-03-01T20:31:28.799Z,96.69
2023-03-01T20:33:57.923Z,97.14
2023-03-01T20:36:26.551Z,96.13
2023-03-01T20:38:54.640Z,95.87
2023-03-01T20:41:22.032Z,96.52
2023-03-01T20:43:54.874Z,97.72
2023-03-01T20:46:25.727Z,98.53
2023-03-01T20:48:54.028Z,99.38
2023-03-01T20:51:21.614Z,100.00
2023-03-01T20:53:49.566Z,100.00
2023-03-01T20:56:18.832Z,99.67
2023-03-01T20:59:04.581Z,99.61
2023-03-01T21:01:32.019Z,98.82
2023-03-01T21:03:59.587Z,99.21
2023-03-01T21:06:26.837Z,98.77
2023-03-01T21:08:55.746Z,99.45
2023-03-01T21:11:26.354Z,100.00
2023-03-01T21:13:54.994Z,100.00
2023-03-01T21:16:22.911Z,100.00
2023-03-01T21:18:50.867Z,100.00
2023-03-01T21:21:23.202Z,100.00
2023-03-01T21:23:50.891Z,100.00
2023-03-01T21:26:20.970Z,100.00
2023-03-01T21:28:50.983Z,100.00
2023-03-01T21:31:24.566Z,100.00
2023-03-01T21:33:55.161Z,100.00
2023-03-01T21:36:25.133Z,100.00
2023-03-01T21:38:53.872Z,100.00
2023-03-01T21:41:24.657Z,100.00
2023-03-01T21:43:54.339Z,100.00
2023-03-01T21:46:24.095Z,100.00
2023-03-01T21:48:54.444Z,100.00
2023-03-01T21:51:24.235Z,100.00
2023-03-01T21:53:51.961Z,100.00
2023-03-01T21:56:28.001Z,100.00
2023-03-01T21:58:57.080Z,100.00
2023-03-01T22:01:27.312Z,100.00
2023-03-01T22:03:56.699Z,100.00
2023-03-01T22:06:26.431Z,100.00
2023-03-01T22:08:57.473Z,100.00
2023-03-01T22:11:27.200Z,100.00
2023-03-01T22:13:56.226Z,100.00
2023-03-01T22:16:29.508Z,100.00
2023-03-01T22:18:58.152Z,100.00
2023-03-01T22:21:26.175Z,100.00
2023-03-01T22:23:55.497Z,100.00
2023-03-01T22:26:34.023Z,100.00
2023-03-01T22:29:04.539Z,100.00
2023-03-01T22:31:32.227Z,100.00
2023-03-01T22:34:00.661Z,100.00
2023-03-01T22:36:28.716Z,100.00
2023-03-01T22:39:01.841Z,100.00
2023-03-01T22:41:38.697Z,100.00
2023-03-01T22:44:06.290Z,100.00
2023-03-01T22:46:33.842Z,100.00
2023-03-01T22:49:02.021Z,100.00
2023-03-01T22:51:32.161Z,100.00
2023-03-01T22:53:59.801Z,100.00
2023-03-01T22:56:29.678Z,100.00
2023-03-01T22:59:03.692Z,100.00
2023-03-01T23:01:31.345Z,100.00
2023-03-01T23:03:58.974Z,100.00
2023-03-01T23:06:26.200Z,100.00
2023-03-01T23:08:56.370Z,100.00
2023-03-01T23:11:24.796Z,100.00
2023-03-01T23:13:54.266Z,100.00
2023-03-01T23:16:29.541Z,100.00
2023-03-01T23:19:00.570Z,100.00
2023-03-01T23:21:28.107Z,100.00
2023-03-01T23:23:56.941Z,100.00
2023-03-01T23:26:28.248Z,100.00
2023-03-01T23:28:57.359Z,100.00
2023-03-01T23:31:30.093Z,100.00
2023-03-01T23:33:57.889Z,100.00
2023-03-01T23:36:31.370Z,100.00
2023-03-01T23:39:02.050Z,100.00
2023-03-01T23:41:31.916Z,100.00
2023-03-01T23:44:01.914Z,100.00
2023-03-01T23:46:32.563Z,100.00
2023-03-01T23:49:01.279Z,100.00
2023-03-01T23:51:29.114Z,100.00
2023-03-01T23:54:00.338Z,100.00
2023-03-01T23:56:30.257Z,100.00
2023-03-01T23:59:00.982Z,100.00
